createdAt,value
2023-05-21T00:01:19.332Z,65.62
2023-05-21T00:02:49.241Z,65.93
2023-05-21T00:04:13.060Z,65.59
2023-05-21T00:05:49.156Z,65.62
2023-05-21T00:07:23.488Z,65.34
2023-05-21T00:08:45.228Z,65.51
2023-05-21T00:10:30.230Z,65.39
2023-05-21T00:12:05.675Z,64.95
2023-05-21T00:13:39.276Z,64.98
2023-05-21T00:15:15.106Z,64.68
2023-05-21T00:16:44.879Z,64.70
2023-05-21T00:18:18.276Z,64.93
2023-05-21T00:19:49.588Z,64.69
2023-05-21T00:21:42.868Z,64.42
2023-05-21T00:23:18.650Z,64.63
2023-05-21T00:24:54.313Z,64.62
2023-05-21T00:26:39.591Z,64.52
2023-05-21T00:28:12.808Z,64.57
2023-05-21T00:29:37.216Z,64.46
2023-05-21T00:31:10.613Z,64.69
2023-05-21T00:32:46.621Z,64.28
2023-05-21T00:34:08.497Z,64.32
2023-05-21T00:35:38.322Z,64.37
2023-05-21T00:37:02.730Z,64.64
2023-05-21T00:38:39.487Z,64.50
2023-05-21T00:40:25.299Z,64.59
2023-05-21T00:42:00.387Z,64.58
2023-05-21T00:43:26.165Z,64.29
2023-05-21T00:44:58.238Z,64.48
2023-05-21T00:46:31.688Z,64.31
2023-05-21T00:48:04.339Z,64.60
2023-05-21T00:49:38.282Z,64.77
2023-05-21T00:51:11.589Z,64.36
2023-05-21T00:52:58.561Z,64.36
2023-05-21T00:54:20.730Z,64.41
2023-05-21T00:55:55.925Z,64.56
2023-05-21T00:57:31.512Z,64.60
2023-05-21T00:59:22.004Z,64.55
2023-05-21T01:00:59.230Z,64.50
2023-05-21T01:02:34.607Z,64.73
2023-05-21T01:04:29.012Z,64.78
2023-05-21T01:06:02.374Z,64.73
2023-05-21T01:07:34.160Z,64.89
2023-05-21T01:09:18.978Z,64.97
2023-05-21T01:11:04.003Z,64.90
2023-05-21T01:12:48.737Z,64.78
2023-05-21T01:14:22.332Z,64.74
2023-05-21T01:15:59.133Z,64.92
2023-05-21T01:17:24.284Z,65.00
2023-05-21T01:19:05.492Z,65.13
2023-05-21T01:20:43.652Z,65.23
2023-05-21T01:22:19.326Z,65.07
2023-05-21T01:23:55.681Z,65.21
2023-05-21T01:25:28.990Z,65.39
2023-05-21T01:27:17.623Z,65.22
2023-05-21T01:29:03.557Z,65.07
2023-05-21T01:30:59.027Z,65.05
2023-05-21T01:32:35.039Z,65.19
2023-05-21T01:34:08.847Z,65.17
2023-05-21T01:35:43.049Z,65.07
2023-05-21T01:37:12.605Z,65.45
2023-05-21T01:38:34.726Z,65.37
2023-05-21T01:39:56.591Z,65.52
2023-05-21T01:41:32.435Z,65.20
2023-05-21T01:43:19.743Z,65.44
2023-05-21T01:44:53.101Z,65.41
2023-05-21T01:46:33.853Z,65.53
2023-05-21T01:48:09.622Z,65.67
2023-05-21T01:49:41.056Z,65.26
2023-05-21T01:51:26.194Z,65.76
2023-05-21T01:53:14.944Z,65.46
2023-05-21T01:55:06.905Z,65.33
2023-05-21T01:56:45.392Z,65.39
2023-05-21T01:58:22.150Z,65.71
2023-05-21T01:59:55.919Z,65.79
2023-05-21T02:01:30.359Z,65.50
2023-05-21T02:03:06.551Z,65.49
2023-05-21T02:05:00.069Z,65.53
2023-05-21T02:06:45.171Z,65.44
2023-05-21T02:08:31.573Z,65.36
2023-05-21T02:10:01.181Z,65.26
2023-05-21T02:11:32.170Z,65.42
2023-05-21T02:13:05.473Z,65.32
2023-05-21T02:14:39.286Z,65.40
2023-05-21T02:16:26.461Z,65.14
2023-05-21T02:18:07.188Z,65.13
2023-05-21T02:19:45.682Z,65.42
2023-05-21T02:21:30.674Z,65.02
2023-05-21T02:23:20.079Z,65.26
2023-05-21T02:25:00.560Z,65.15
2023-05-21T02:26:36.615Z,65.34
2023-05-21T02:28:11.658Z,65.13
2023-05-21T02:29:44.762Z,65.35
2023-05-21T02:31:22.049Z,65.08
2023-05-21T02:32:55.489Z,65.14
2023-05-21T02:34:43.871Z,65.37
2023-05-21T02:36:08.783Z,65.12
2023-05-21T02:37:49.427Z,65.24
2023-05-21T02:39:20.722Z,65.06
2023-05-21T02:41:08.212Z,65.13
2023-05-21T02:42:42.016Z,65.11
2023-05-21T02:44:23.953Z,64.98
2023-05-21T02:46:06.938Z,65.00
2023-05-21T02:47:42.750Z,65.00
2023-05-21T02:49:17.583Z,64.90
2023-05-21T02:50:58.649Z,64.88
2023-05-21T02:52:28.043Z,65.04
2023-05-21T02:54:04.592Z,65.19
2023-05-21T02:55:38.278Z,64.84
2023-05-21T02:57:12.094Z,64.98
2023-05-21T02:58:46.323Z,64.71
2023-05-21T03:00:19.370Z,64.99
2023-05-21T03:02:05.565Z,64.49
2023-05-21T03:03:41.688Z,64.87
2023-05-21T03:05:15.361Z,64.45
2023-05-21T03:07:00.885Z,64.29
2023-05-21T03:08:34.618Z,64.30
2023-05-21T03:10:10.046Z,64.28
2023-05-21T03:11:45.517Z,64.09
2023-05-21T03:13:31.292Z,64.23
2023-05-21T03:15:11.543Z,64.10
2023-05-21T03:16:53.440Z,64.09
2023-05-21T03:18:36.039Z,64.20
2023-05-21T03:20:21.085Z,63.96
2023-05-21T03:21:55.973Z,64.03
2023-05-21T03:23:30.076Z,64.09
2023-05-21T03:25:07.281Z,64.02
2023-05-21T03:26:52.459Z,63.81
2023-05-21T03:28:37.807Z,63.87
2023-05-21T03:30:19.435Z,63.73
2023-05-21T03:32:09.508Z,64.21
2023-05-21T03:33:45.772Z,63.95
2023-05-21T03:35:37.078Z,63.71
2023-05-21T03:37:01.665Z,63.86
2023-05-21T03:38:37.118Z,63.85
2023-05-21T03:40:24.432Z,63.73
2023-05-21T03:42:12.338Z,63.80
2023-05-21T03:43:42.513Z,63.82
2023-05-21T03:45:12.144Z,63.84
2023-05-21T03:47:35.604Z,63.86
2023-05-21T03:49:02.777Z,63.80
2023-05-21T03:50:48.343Z,63.75
2023-05-21T03:52:39.046Z,63.51
2023-05-21T03:54:12.178Z,63.67
2023-05-21T03:56:00.074Z,63.72
2023-05-21T03:57:45.443Z,63.69
2023-05-21T03:59:33.885Z,63.51
2023-05-21T04:01:22.488Z,63.62
2023-05-21T04:02:54.694Z,63.51
2023-05-21T04:04:29.538Z,63.34
2023-05-21T04:06:02.798Z,63.03
2023-05-21T04:07:49.928Z,63.08
2023-05-21T04:09:31.167Z,62.98
2023-05-21T04:11:16.321Z,62.94
2023-05-21T04:12:57.495Z,62.39
2023-05-21T04:14:33.335Z,62.17
2023-05-21T04:16:10.548Z,62.09
2023-05-21T04:17:45.363Z,62.14
2023-05-21T04:19:21.544Z,62.18
2023-05-21T04:20:48.540Z,62.30
2023-05-21T04:22:35.049Z,62.15
2023-05-21T04:23:59.940Z,62.19
2023-05-21T04:25:57.601Z,61.80
2023-05-21T04:27:43.083Z,61.81
2023-05-21T04:29:16.743Z,61.72
2023-05-21T04:30:50.411Z,61.52
2023-05-21T04:32:26.099Z,61.50
2023-05-21T04:34:11.243Z,61.30
2023-05-21T04:35:45.002Z,60.85
2023-05-21T04:37:39.139Z,60.80
2023-05-21T04:39:12.532Z,60.55
2023-05-21T04:40:45.696Z,59.96
2023-05-21T04:42:27.602Z,60.26
2023-05-21T04:44:13.888Z,60.16
2023-05-21T04:45:49.367Z,60.08
2023-05-21T04:47:23.097Z,60.02
2023-05-21T04:49:07.914Z,59.92
2023-05-21T04:50:45.422Z,60.26
2023-05-21T04:52:19.125Z,60.24
2023-05-21T04:53:55.716Z,60.03
2023-05-21T04:55:41.155Z,60.37
2023-05-21T04:57:26.324Z,60.25
2023-05-21T04:59:07.489Z,60.03
2023-05-21T05:00:40.916Z,59.21
2023-05-21T05:02:09.964Z,59.52
2023-05-21T05:03:55.379Z,59.50
2023-05-21T05:05:17.087Z,59.26
2023-05-21T05:06:38.797Z,59.14
2023-05-21T05:08:16.074Z,58.73
2023-05-21T05:10:01.008Z,58.47
2023-05-21T05:11:41.772Z,58.56
2023-05-21T05:13:19.420Z,58.36
2023-05-21T05:15:02.063Z,58.04
2023-05-21T05:16:26.292Z,58.00
2023-05-21T05:17:56.484Z,58.08
2023-05-21T05:19:32.913Z,57.67
2023-05-21T05:20:55.109Z,57.78
2023-05-21T05:22:40.405Z,57.49
2023-05-21T05:24:25.720Z,57.18
2023-05-21T05:25:59.332Z,57.12
2023-05-21T05:27:42.557Z,57.20
2023-05-21T05:29:36.242Z,57.12
2023-05-21T05:33:37.048Z,56.62
2023-05-21T05:35:10.767Z,56.64
2023-05-21T05:36:57.804Z,56.51
2023-05-21T05:38:43.157Z,56.09
2023-05-21T05:40:19.340Z,55.91
2023-05-21T05:42:14.225Z,55.96
2023-05-21T05:43:43.885Z,55.97
2023-05-21T05:45:30.079Z,56.04
2023-05-21T05:47:15.628Z,55.92
2023-05-21T05:48:51.404Z,55.67
2023-05-21T05:50:35.476Z,55.16
2023-05-21T05:52:25.073Z,55.24
2023-05-21T05:53:49.433Z,54.95
2023-05-21T05:55:25.115Z,54.84
2023-05-21T05:57:18.840Z,54.90
2023-05-21T05:59:04.226Z,54.80
2023-05-21T06:00:36.483Z,54.42
2023-05-21T06:02:02.035Z,53.86
2023-05-21T06:03:47.367Z,54.50
2023-05-21T06:05:23.980Z,54.57
2023-05-21T06:06:59.881Z,54.57
2023-05-21T06:08:37.354Z,54.70
2023-05-21T06:10:26.124Z,54.53
2023-05-21T06:12:01.746Z,54.29
2023-05-21T06:13:35.656Z,54.16
2023-05-21T06:15:20.736Z,53.72
2023-05-21T06:16:53.883Z,52.99
2023-05-21T06:18:32.293Z,52.88
2023-05-21T06:20:17.623Z,52.67
2023-05-21T06:21:51.424Z,52.73
2023-05-21T06:23:32.501Z,52.36
2023-05-21T06:25:08.265Z,51.85
2023-05-21T06:26:42.456Z,51.69
2023-05-21T06:28:15.908Z,51.10
2023-05-21T06:29:58.091Z,51.30
2023-05-21T06:31:22.363Z,50.84
2023-05-21T06:33:13.809Z,50.44
2023-05-21T06:34:45.331Z,50.15
2023-05-21T06:36:19.069Z,50.21
2023-05-21T06:37:52.622Z,50.68
2023-05-21T06:39:27.148Z,50.53
2023-05-21T06:41:04.036Z,50.40
2023-05-21T06:43:17.124Z,49.43
2023-05-21T06:44:57.700Z,48.87
2023-05-21T06:46:31.488Z,48.30
2023-05-21T06:48:04.346Z,48.63
2023-05-21T06:49:40.151Z,48.53
2023-05-21T06:51:15.984Z,48.74
2023-05-21T06:52:51.664Z,48.24
2023-05-21T06:54:26.933Z,48.19
2023-05-21T06:56:01.008Z,47.66
2023-05-21T06:57:54.776Z,48.24
2023-05-21T06:59:16.421Z,47.57
2023-05-21T07:00:57.944Z,47.51
2023-05-21T07:02:40.622Z,48.56
2023-05-21T07:04:13.936Z,48.60
2023-05-21T07:05:50.000Z,48.24
2023-05-21T07:07:27.574Z,48.01
2023-05-21T07:09:03.382Z,48.26
2023-05-21T07:10:39.391Z,47.81
2023-05-21T07:12:12.595Z,47.16
2023-05-21T07:13:57.693Z,47.54
2023-05-21T07:15:31.425Z,47.04
2023-05-21T07:17:12.214Z,46.89
2023-05-21T07:18:48.134Z,46.49
2023-05-21T07:20:21.347Z,46.04
2023-05-21T07:22:02.389Z,46.35
2023-05-21T07:23:47.703Z,45.48
2023-05-21T07:25:26.748Z,45.06
2023-05-21T07:26:55.389Z,45.18
2023-05-21T07:28:29.148Z,45.02
2023-05-21T07:30:04.962Z,44.65
2023-05-21T07:31:38.549Z,45.04
2023-05-21T07:33:24.340Z,45.03
2023-05-21T07:34:48.236Z,45.36
2023-05-21T07:36:12.901Z,44.76
2023-05-21T07:37:58.247Z,44.72
2023-05-21T07:39:31.461Z,45.31
2023-05-21T07:41:12.518Z,45.61
2023-05-21T07:42:58.610Z,44.88
2023-05-21T07:44:34.307Z,45.29
2023-05-21T07:45:59.374Z,44.90
2023-05-21T07:47:44.540Z,44.20
2023-05-21T07:49:16.319Z,44.24
2023-05-21T07:50:54.835Z,43.25
2023-05-21T07:52:28.444Z,43.05
2023-05-21T07:54:02.056Z,42.86
2023-05-21T07:55:50.645Z,43.08
2023-05-21T07:57:18.397Z,43.52
2023-05-21T07:58:59.513Z,42.94
2023-05-21T08:00:40.783Z,43.31
2023-05-21T08:02:26.095Z,43.13
2023-05-21T08:04:07.209Z,42.66
2023-05-21T08:05:57.458Z,42.32
2023-05-21T08:07:32.092Z,42.54
2023-05-21T08:09:13.360Z,42.56
2023-05-21T08:10:47.792Z,42.73
2023-05-21T08:12:18.707Z,41.78
2023-05-21T08:13:53.762Z,41.67
2023-05-21T08:15:38.781Z,41.42
2023-05-21T08:17:14.803Z,41.96
2023-05-21T08:18:48.329Z,41.59
2023-05-21T08:20:33.419Z,41.07
2023-05-21T08:22:06.837Z,40.15
2023-05-21T08:23:31.957Z,40.50
2023-05-21T08:25:17.577Z,40.62
2023-05-21T08:26:53.593Z,39.81
2023-05-21T08:28:29.303Z,39.72
2023-05-21T08:30:05.094Z,39.33
2023-05-21T08:31:50.996Z,39.17
2023-05-21T08:33:31.906Z,39.62
2023-05-21T08:34:56.383Z,40.03
2023-05-21T08:37:10.908Z,40.56
2023-05-21T08:39:27.936Z,39.64
2023-05-21T08:41:11.092Z,39.46
2023-05-21T08:43:00.049Z,38.34
2023-05-21T08:44:50.224Z,39.59
2023-05-21T08:46:36.524Z,38.86
2023-05-21T08:48:21.409Z,38.14
2023-05-21T08:49:57.333Z,38.40
2023-05-21T08:51:39.429Z,37.91
2023-05-21T08:53:28.325Z,38.30
2023-05-21T08:55:15.325Z,37.23
2023-05-21T08:56:49.216Z,37.38
2023-05-21T08:58:13.588Z,37.01
2023-05-21T08:59:43.155Z,37.42
2023-05-21T09:01:19.295Z,36.84
2023-05-21T09:02:50.004Z,37.40
2023-05-21T09:04:35.600Z,38.10
2023-05-21T09:06:23.870Z,37.92
2023-05-21T09:08:09.030Z,37.30
2023-05-21T09:10:05.059Z,37.41
2023-05-21T09:11:46.701Z,36.67
2023-05-21T09:13:22.117Z,36.54
2023-05-21T09:15:02.604Z,35.91
2023-05-21T09:18:35.051Z,36.47
2023-05-21T09:20:23.374Z,37.09
2023-05-21T09:21:55.201Z,35.98
2023-05-21T09:23:32.997Z,36.27
2023-05-21T09:25:07.950Z,36.74
2023-05-21T09:26:44.184Z,36.70
2023-05-21T09:28:29.227Z,36.90
2023-05-21T09:29:58.411Z,36.93
2023-05-21T09:31:31.916Z,35.60
2023-05-21T09:33:04.678Z,34.87
2023-05-21T09:34:33.962Z,34.97
2023-05-21T09:35:55.722Z,35.07
2023-05-21T09:37:32.226Z,35.82
2023-05-21T09:39:07.758Z,36.38
2023-05-21T09:40:39.976Z,36.79
2023-05-21T09:42:25.196Z,36.55
2023-05-21T09:43:57.268Z,36.24
2023-05-21T09:45:33.342Z,36.02
2023-05-21T09:47:06.752Z,36.23
2023-05-21T09:48:41.850Z,36.00
2023-05-21T09:50:22.199Z,36.47
2023-05-21T09:51:55.513Z,36.06
2023-05-21T09:53:17.304Z,36.15
2023-05-21T09:54:57.987Z,35.78
2023-05-21T09:56:22.424Z,35.56
2023-05-21T09:57:50.608Z,34.62
2023-05-21T09:59:31.713Z,33.99
2023-05-21T10:01:17.746Z,33.90
2023-05-21T10:02:50.938Z,33.69
2023-05-21T10:04:35.899Z,33.49
2023-05-21T10:06:11.788Z,33.52
2023-05-21T10:07:44.946Z,33.59
2023-05-21T10:09:30.053Z,34.17
2023-05-21T10:11:03.740Z,33.88
2023-05-21T10:12:37.140Z,33.55
2023-05-21T10:14:22.337Z,33.45
2023-05-21T10:15:58.177Z,33.67
2023-05-21T10:17:31.696Z,33.74
2023-05-21T10:19:16.845Z,33.49
2023-05-21T10:20:50.210Z,33.67
2023-05-21T10:22:25.710Z,33.29
2023-05-21T10:24:01.934Z,33.66
2023-05-21T10:25:35.763Z,33.25
2023-05-21T10:27:11.283Z,34.05
2023-05-21T10:28:45.567Z,33.82
2023-05-21T10:30:22.062Z,34.67
2023-05-21T10:31:55.882Z,34.35
2023-05-21T10:33:29.146Z,33.73
2023-05-21T10:34:55.704Z,34.08
2023-05-21T10:36:25.223Z,34.32
2023-05-21T10:37:49.631Z,34.05
2023-05-21T10:39:34.529Z,33.41
2023-05-21T10:41:04.968Z,33.36
2023-05-21T10:42:46.047Z,32.62
2023-05-21T10:44:31.569Z,33.81
2023-05-21T10:45:53.362Z,32.98
2023-05-21T10:47:29.146Z,33.05
2023-05-21T10:49:14.742Z,32.55
2023-05-21T10:50:56.185Z,33.24
2023-05-21T10:52:22.809Z,31.93
2023-05-21T10:53:58.874Z,31.58
2023-05-21T10:55:31.946Z,31.84
2023-05-21T10:57:05.011Z,31.88
2023-05-21T10:58:46.172Z,31.92
2023-05-21T11:00:28.614Z,31.35
2023-05-21T11:01:53.398Z,32.45
2023-05-21T11:03:20.421Z,32.46
2023-05-21T11:04:56.164Z,32.32
2023-05-21T11:06:29.932Z,31.87
2023-05-21T11:08:05.765Z,32.07
2023-05-21T11:09:50.914Z,32.18
2023-05-21T11:11:31.731Z,31.35
2023-05-21T11:13:05.951Z,31.05
2023-05-21T11:14:35.150Z,31.29
2023-05-21T11:16:11.104Z,31.61
2023-05-21T11:17:52.318Z,31.55
2023-05-21T11:19:26.040Z,30.60
2023-05-21T11:20:59.512Z,30.87
2023-05-21T11:22:25.737Z,30.00
2023-05-21T11:23:47.473Z,30.35
2023-05-21T11:25:20.805Z,30.43
2023-05-21T11:26:50.225Z,30.59
2023-05-21T11:28:11.862Z,30.00
2023-05-21T11:29:45.527Z,30.52
2023-05-21T11:31:19.516Z,30.01
2023-05-21T11:32:53.385Z,29.17
2023-05-21T11:34:29.357Z,29.26
2023-05-21T11:35:51.584Z,29.14
2023-05-21T11:39:15.703Z,29.83
2023-05-21T11:41:06.277Z,28.97
2023-05-21T11:42:42.370Z,29.40
2023-05-21T11:44:04.145Z,29.00
2023-05-21T11:45:26.282Z,29.23
2023-05-21T11:47:11.367Z,28.48
2023-05-21T11:48:46.692Z,29.02
2023-05-21T11:50:18.229Z,29.21
2023-05-21T11:51:44.468Z,28.51
2023-05-21T11:53:08.988Z,29.90
2023-05-21T11:54:45.666Z,30.27
2023-05-21T11:56:11.962Z,28.86
2023-05-21T11:57:48.063Z,29.40
2023-05-21T11:59:28.709Z,29.18
2023-05-21T12:01:13.960Z,27.74
2023-05-21T12:02:59.128Z,27.59
2023-05-21T12:04:32.502Z,27.83
2023-05-21T12:06:03.995Z,26.69
2023-05-21T12:07:44.537Z,27.28
2023-05-21T12:09:18.155Z,27.14
2023-05-21T12:10:47.380Z,26.59
2023-05-21T12:12:13.231Z,26.45
2023-05-21T12:13:49.907Z,26.73
2023-05-21T12:15:13.852Z,28.15
2023-05-21T12:16:47.368Z,28.71
2023-05-21T12:18:27.796Z,27.91
2023-05-21T12:20:13.741Z,26.50
2023-05-21T12:21:47.044Z,27.06
2023-05-21T12:23:20.336Z,26.57
2023-05-21T12:25:01.372Z,27.07
2023-05-21T12:26:37.333Z,26.95
2023-05-21T12:28:13.233Z,27.46
2023-05-21T12:29:46.383Z,27.95
2023-05-21T12:31:22.020Z,27.70
2023-05-21T12:32:58.150Z,26.57
2023-05-21T12:34:27.600Z,27.44
2023-05-21T12:36:15.029Z,27.61
2023-05-21T12:38:02.098Z,26.45
2023-05-21T12:39:37.033Z,26.14
2023-05-21T12:41:18.021Z,25.22
2023-05-21T12:42:51.857Z,25.30
2023-05-21T12:44:25.193Z,26.34
2023-05-21T12:45:47.364Z,26.51
2023-05-21T12:47:29.983Z,26.86
2023-05-21T12:49:23.728Z,25.81
2023-05-21T12:50:53.109Z,26.54
2023-05-21T12:52:27.316Z,25.90
2023-05-21T12:53:51.129Z,26.54
2023-05-21T12:55:25.589Z,26.76
2023-05-21T12:57:01.118Z,25.80
2023-05-21T12:58:37.324Z,25.87
2023-05-21T13:00:29.797Z,25.76
2023-05-21T13:01:53.734Z,26.19
2023-05-21T13:03:27.944Z,26.35
2023-05-21T13:04:51.665Z,25.94
2023-05-21T13:06:34.273Z,26.73
2023-05-21T13:08:19.137Z,25.70
2023-05-21T13:09:54.057Z,25.62
2023-05-21T13:11:34.772Z,26.18
2023-05-21T13:13:15.885Z,25.57
2023-05-21T13:14:56.619Z,25.22
2023-05-21T13:16:29.877Z,24.66
2023-05-21T13:18:12.022Z,25.71
2023-05-21T13:19:52.881Z,25.41
2023-05-21T13:21:28.643Z,25.48
2023-05-21T13:23:13.756Z,25.77
2023-05-21T13:24:40.104Z,24.00
2023-05-21T13:26:13.998Z,24.38
2023-05-21T13:27:38.021Z,24.95
2023-05-21T13:29:02.168Z,25.05
2023-05-21T13:30:43.047Z,24.31
2023-05-21T13:32:24.260Z,25.06
2023-05-21T13:34:10.106Z,24.13
2023-05-21T13:36:00.015Z,24.14
2023-05-21T13:37:45.834Z,23.93
2023-05-21T13:39:31.112Z,23.94
2023-05-21T13:41:06.988Z,24.06
2023-05-21T13:42:47.657Z,23.20
2023-05-21T13:44:09.367Z,24.56
2023-05-21T13:45:44.819Z,25.14
2023-05-21T13:47:29.976Z,24.23
2023-05-21T13:49:03.610Z,24.39
2023-05-21T13:50:52.577Z,24.02
2023-05-21T13:52:22.008Z,23.55
2023-05-21T13:53:46.116Z,23.63
2023-05-21T13:55:19.478Z,24.32
2023-05-21T13:56:55.152Z,25.03
2023-05-21T13:58:40.376Z,26.03
2023-05-21T14:00:09.891Z,25.91
2023-05-21T14:01:59.021Z,27.01
2023-05-21T14:03:44.230Z,25.71
2023-05-21T14:05:29.177Z,24.93
2023-05-21T14:06:53.533Z,25.16
2023-05-21T14:08:29.333Z,24.06
2023-05-21T14:10:02.802Z,23.91
2023-05-21T14:11:38.255Z,24.55
2023-05-21T14:13:18.464Z,24.20
2023-05-21T14:14:43.982Z,24.56
2023-05-21T14:16:28.860Z,24.02
2023-05-21T14:18:10.106Z,24.17
2023-05-21T14:19:43.812Z,24.95
2023-05-21T14:21:15.019Z,23.78
2023-05-21T14:22:46.260Z,23.41
2023-05-21T14:24:22.044Z,24.66
2023-05-21T14:26:07.222Z,23.73
2023-05-21T14:27:31.472Z,23.49
2023-05-21T14:29:18.656Z,24.09
2023-05-21T14:30:47.429Z,23.32
2023-05-21T14:32:32.500Z,23.46
2023-05-21T14:34:07.938Z,23.37
2023-05-21T14:35:32.356Z,23.78
2023-05-21T14:37:01.451Z,23.57
2023-05-21T14:38:28.997Z,22.03
2023-05-21T14:40:14.251Z,22.56
2023-05-21T14:41:43.415Z,22.59
2023-05-21T14:43:25.153Z,22.54
2023-05-21T14:45:18.647Z,23.17
2023-05-21T14:47:10.013Z,22.40
2023-05-21T14:48:55.807Z,22.72
2023-05-21T14:50:36.810Z,22.80
2023-05-21T14:52:01.155Z,22.78
2023-05-21T14:53:37.106Z,22.43
2023-05-21T14:55:25.682Z,23.20
2023-05-21T14:56:50.297Z,22.97
2023-05-21T14:58:14.953Z,23.47
2023-05-21T14:59:51.183Z,23.34
2023-05-21T15:01:28.299Z,22.92
2023-05-21T15:03:13.620Z,23.65
2023-05-21T15:04:59.024Z,22.70
2023-05-21T15:06:44.333Z,23.09
2023-05-21T15:08:19.619Z,22.50
2023-05-21T15:09:56.293Z,22.23
2023-05-21T15:11:22.632Z,22.19
2023-05-21T15:12:56.286Z,22.92
2023-05-21T15:14:20.773Z,22.75
2023-05-21T15:15:56.761Z,23.06
2023-05-21T15:17:30.098Z,22.85
2023-05-21T15:19:03.834Z,22.79
2023-05-21T15:20:44.608Z,22.17
2023-05-21T15:22:28.027Z,21.76
2023-05-21T15:23:51.543Z,22.12
2023-05-21T15:25:34.134Z,22.03
2023-05-21T15:27:21.153Z,22.17
2023-05-21T15:29:15.021Z,22.37
2023-05-21T15:30:39.271Z,21.92
2023-05-21T15:32:14.961Z,21.71
2023-05-21T15:34:05.031Z,21.95
2023-05-21T15:35:50.257Z,22.14
2023-05-21T15:37:33.074Z,22.01
2023-05-21T15:39:03.568Z,22.24
2023-05-21T15:40:49.539Z,22.17
2023-05-21T15:42:16.204Z,22.05
2023-05-21T15:43:40.485Z,22.40
2023-05-21T15:45:10.032Z,22.32
2023-05-21T15:46:46.085Z,22.16
2023-05-21T15:48:22.517Z,22.64
2023-05-21T15:50:07.520Z,24.00
2023-05-21T15:51:48.403Z,24.26
2023-05-21T15:53:10.652Z,24.89
2023-05-21T15:54:44.345Z,24.77
2023-05-21T15:56:17.543Z,24.60
2023-05-21T15:57:39.732Z,25.07
2023-05-21T15:59:28.592Z,25.82
2023-05-21T16:01:04.748Z,26.12
2023-05-21T16:02:46.619Z,26.54
2023-05-21T16:04:19.985Z,27.11
2023-05-21T16:05:53.721Z,28.04
2023-05-21T16:07:24.781Z,27.80
2023-05-21T16:09:13.155Z,27.97
2023-05-21T16:10:49.691Z,28.12
2023-05-21T16:12:18.871Z,28.55
2023-05-21T16:13:40.685Z,29.39
2023-05-21T16:15:02.754Z,29.30
2023-05-21T16:16:36.713Z,29.63
2023-05-21T16:18:08.140Z,29.71
2023-05-21T16:19:29.724Z,29.88
2023-05-21T16:20:54.137Z,29.90
2023-05-21T16:22:20.186Z,30.26
2023-05-21T16:23:53.854Z,30.54
2023-05-21T16:25:20.919Z,30.76
2023-05-21T16:27:05.716Z,31.47
2023-05-21T16:28:46.578Z,31.39
2023-05-21T16:30:27.413Z,31.54
2023-05-21T16:32:03.206Z,32.09
2023-05-21T16:33:48.106Z,32.24
2023-05-21T16:35:33.164Z,32.78
2023-05-21T16:37:09.252Z,32.88
2023-05-21T16:38:31.281Z,33.27
2023-05-21T16:40:04.999Z,33.32
2023-05-21T16:41:55.087Z,33.30
2023-05-21T16:43:35.677Z,33.27
2023-05-21T16:45:20.839Z,33.89
2023-05-21T16:46:56.461Z,34.04
2023-05-21T16:48:29.775Z,34.52
2023-05-21T16:50:10.572Z,34.59
2023-05-21T16:51:32.297Z,34.72
2023-05-21T16:53:07.510Z,34.67
2023-05-21T16:54:52.474Z,34.54
2023-05-21T16:56:39.180Z,35.16
2023-05-21T16:58:26.345Z,36.21
2023-05-21T17:00:03.009Z,35.76
2023-05-21T17:01:48.405Z,36.37
2023-05-21T17:03:10.206Z,36.69
2023-05-21T17:04:46.123Z,36.93
2023-05-21T17:06:17.383Z,36.85
2023-05-21T17:07:48.560Z,36.66
2023-05-21T17:09:24.225Z,36.49
2023-05-21T17:10:58.307Z,36.94
2023-05-21T17:12:32.043Z,36.84
2023-05-21T17:14:05.729Z,37.12
2023-05-21T17:15:39.659Z,37.16
2023-05-21T17:17:24.794Z,37.68
2023-05-21T17:19:08.058Z,37.78
2023-05-21T17:20:43.765Z,38.21
2023-05-21T17:22:17.423Z,38.32
2023-05-21T17:26:10.461Z,38.58
2023-05-21T17:27:41.647Z,38.48
2023-05-21T17:29:26.701Z,38.57
2023-05-21T17:31:03.245Z,38.98
2023-05-21T17:32:48.176Z,39.19
2023-05-21T17:34:36.377Z,39.19
2023-05-21T17:36:24.470Z,39.39
2023-05-21T17:38:06.828Z,39.47
2023-05-21T17:39:40.336Z,39.40
2023-05-21T17:41:02.204Z,39.82
2023-05-21T17:42:47.137Z,40.09
2023-05-21T17:44:33.324Z,39.85
2023-05-21T17:46:13.824Z,40.09
2023-05-21T17:48:07.196Z,40.46
2023-05-21T17:49:52.564Z,40.55
2023-05-21T17:51:38.076Z,41.04
2023-05-21T17:53:14.054Z,41.03
2023-05-21T17:54:35.991Z,41.15
2023-05-21T17:56:25.235Z,41.32
2023-05-21T17:57:59.078Z,41.39
2023-05-21T17:59:33.263Z,41.74
2023-05-21T18:01:06.772Z,41.71
2023-05-21T18:02:35.973Z,42.19
2023-05-21T18:04:10.800Z,42.20
2023-05-21T18:05:33.004Z,42.16
2023-05-21T18:07:02.516Z,42.48
2023-05-21T18:08:24.654Z,42.52
2023-05-21T18:10:09.885Z,42.68
2023-05-21T18:12:03.037Z,42.70
2023-05-21T18:13:36.801Z,42.91
2023-05-21T18:15:13.176Z,43.03
2023-05-21T18:16:58.135Z,43.14
2023-05-21T18:18:21.509Z,43.43
2023-05-21T18:19:54.884Z,43.40
2023-05-21T18:21:30.724Z,43.57
2023-05-21T18:23:15.769Z,43.59
2023-05-21T18:24:51.245Z,43.96
2023-05-21T18:26:32.817Z,43.78
2023-05-21T18:28:10.606Z,44.01
2023-05-21T18:29:51.195Z,44.19
2023-05-21T18:31:34.141Z,44.45
2023-05-21T18:33:04.726Z,44.29
2023-05-21T18:34:49.370Z,44.96
2023-05-21T18:36:22.284Z,44.74
2023-05-21T18:37:51.248Z,44.75
2023-05-21T18:39:13.038Z,44.56
2023-05-21T18:40:46.967Z,45.11
2023-05-21T18:42:32.156Z,44.81
2023-05-21T18:44:17.671Z,45.09
2023-05-21T18:45:49.248Z,45.74
2023-05-21T18:47:11.531Z,45.48
2023-05-21T18:49:05.083Z,45.58
2023-05-21T18:50:31.745Z,45.68
2023-05-21T18:52:07.803Z,45.88
2023-05-21T18:53:29.431Z,46.39
2023-05-21T18:57:22.181Z,46.68
2023-05-21T18:59:07.832Z,46.57
2023-05-21T19:00:43.310Z,46.50
2023-05-21T19:02:29.714Z,46.64
2023-05-21T19:03:53.942Z,46.50
2023-05-21T19:05:38.996Z,46.28
2023-05-21T19:07:20.128Z,46.60
2023-05-21T19:08:44.703Z,46.98
2023-05-21T19:10:06.699Z,46.87
2023-05-21T19:11:35.830Z,46.95
2023-05-21T19:13:03.390Z,46.88
2023-05-21T19:14:38.557Z,47.00
2023-05-21T19:16:11.425Z,47.35
2023-05-21T19:17:35.019Z,47.08
2023-05-21T19:19:08.082Z,47.23
2023-05-21T19:20:41.823Z,47.18
2023-05-21T19:22:29.094Z,47.38
2023-05-21T19:24:06.347Z,47.86
2023-05-21T19:25:35.639Z,47.78
2023-05-21T19:27:12.277Z,47.97
2023-05-21T19:28:52.946Z,48.03
2023-05-21T19:30:26.927Z,48.26
2023-05-21T19:31:54.921Z,48.02
2023-05-21T19:33:28.641Z,48.36
2023-05-21T19:35:11.106Z,48.31
2023-05-21T19:36:53.324Z,48.77
2023-05-21T19:38:27.923Z,48.93
2023-05-21T19:39:57.044Z,49.05
2023-05-21T19:41:22.975Z,49.05
2023-05-21T19:43:04.719Z,49.24
2023-05-21T19:44:40.827Z,49.18
2023-05-21T19:46:20.058Z,49.32
2023-05-21T19:47:46.209Z,49.27
2023-05-21T19:49:33.693Z,49.85
2023-05-21T19:51:10.408Z,49.59
2023-05-21T19:52:44.145Z,49.74
2023-05-21T19:54:18.657Z,49.76
2023-05-21T19:56:05.657Z,49.80
2023-05-21T19:57:39.795Z,49.96
2023-05-21T19:59:26.336Z,50.22
2023-05-21T20:00:57.788Z,50.05
2023-05-21T20:02:28.719Z,50.20
2023-05-21T20:04:02.721Z,50.13
2023-05-21T20:05:36.110Z,50.23
2023-05-21T20:06:58.011Z,50.41
2023-05-21T20:08:20.593Z,50.18
2023-05-21T20:09:56.140Z,50.16
2023-05-21T20:11:29.512Z,50.03
2023-05-21T20:13:03.108Z,50.27
2023-05-21T20:14:33.562Z,50.02
2023-05-21T20:16:16.130Z,50.17
2023-05-21T20:17:42.913Z,50.45
2023-05-21T20:19:22.570Z,50.25
2023-05-21T20:20:54.037Z,50.52
2023-05-21T20:22:30.804Z,50.39
2023-05-21T20:23:52.427Z,50.50
2023-05-21T20:25:28.197Z,50.78
2023-05-21T20:26:49.916Z,50.63
2023-05-21T20:28:14.085Z,50.66
2023-05-21T20:30:09.089Z,50.46
2023-05-21T20:32:03.107Z,50.64
2023-05-21T20:33:41.086Z,51.17
2023-05-21T20:35:05.327Z,50.91
2023-05-21T20:36:36.869Z,51.13
2023-05-21T20:38:06.233Z,51.14
2023-05-21T20:39:30.701Z,51.35
2023-05-21T20:40:54.825Z,51.11
2023-05-21T20:42:36.638Z,51.24
2023-05-21T20:44:10.118Z,51.36
2023-05-21T20:45:45.148Z,51.77
2023-05-21T20:47:11.910Z,51.31
2023-05-21T20:48:45.637Z,51.44
2023-05-21T20:50:07.347Z,51.64
2023-05-21T20:51:29.021Z,51.28
2023-05-21T20:53:03.826Z,51.53
2023-05-21T20:54:32.987Z,51.68
2023-05-21T20:56:02.287Z,51.30
2023-05-21T20:57:36.032Z,51.65